San Antonio North's Hourly Summary for Monday, July 9, 2018
Hour Temp
(f)
RH
(%)
Solar Rad.
(MJ/m2)
Rainfall
(in)
Wind
(mph)
7/9/2018 12:00 AM 76 84 0 0 0
7/9/2018 1:00 AM 75 86 0 0 0
7/9/2018 2:00 AM 74 88 0 0 0
7/9/2018 3:00 AM 74 91 0 0 0
7/9/2018 4:00 AM 74 90 0 0 0.22
7/9/2018 5:00 AM 74 90 0 0.13 0.43
7/9/2018 6:00 AM 73 93 0 0 0.49
7/9/2018 7:00 AM 74 95 0.01 0.01 0.38
7/9/2018 8:00 AM 75 93 0.19 0.01 0.42
7/9/2018 9:00 AM 76 92 0.34 0 0.44
7/9/2018 10:00 AM 77 83 0.72 0 0.37
7/9/2018 11:00 AM 80 70 1.13 0 0.37
7/9/2018 12:00 PM 77 70 0.66 0.11 5.26
7/9/2018 1:00 PM 71 92 0.74 0.33 6.94
7/9/2018 2:00 PM 72 91 0.32 0.02 4.22
7/9/2018 3:00 PM 71 94 0.21 0.14 0.85
7/9/2018 4:00 PM 71 92 0.2 0.04 0.71
7/9/2018 5:00 PM 72 93 0.39 0.02 1.21
7/9/2018 6:00 PM 74 89 0.66 0 1.92
7/9/2018 7:00 PM 75 84 0.51 0 2.57
7/9/2018 8:00 PM 75 85 0.23 0 2.38
7/9/2018 9:00 PM 74 88 0.04 0 1.38
7/9/2018 10:00 PM 73 92 0 0 1.15
7/9/2018 11:00 PM 73 90 0 0 0.5
Data Summary 74 88 6.35 0.81 1.34